Time;durP1;ratioP1;P1;durP2;ratioP2;P2;SDS_P1;SDS_P2;PMS_P1;PMS_P2;Temp;Humidity;BMP_temperature;BMP_pressure;BME280_temperature;BME280_humidity;BME280_pressure;Samples;Min_cycle;Max_cycle;Signal;HPM_P1;HPM_P2
2022/07/13 00:00:57;;;;;;;3.80;1.27;;;22.50;60.20;;;;;;2272406;59;21067;-74
2022/07/13 00:03:24;;;;;;;3.03;1.25;;;22.50;60.00;;;;;;2270618;59;21111;-74
2022/07/13 00:05:52;;;;;;;3.60;1.50;;;22.50;59.90;;;;;;2271327;59;21202;-74
2022/07/13 00:08:19;;;;;;;2.42;1.58;;;22.60;59.80;;;;;;2272702;59;21071;-73
2022/07/13 00:10:46;;;;;;;1.67;1.50;;;22.60;59.80;;;;;;2271761;59;21131;-74
2022/07/13 00:13:14;;;;;;;2.37;1.62;;;22.60;59.60;;;;;;2272203;59;21115;-73
2022/07/13 00:15:41;;;;;;;1.55;1.33;;;22.60;59.50;;;;;;2271638;59;21079;-74
2022/07/13 00:18:09;;;;;;;1.77;1.50;;;22.60;59.30;;;;;;2272375;59;21064;-74
2022/07/13 00:20:37;;;;;;;4.00;1.50;;;22.60;59.30;;;;;;2271760;59;21393;-74
2022/07/13 00:23:04;;;;;;;2.17;1.35;;;22.70;59.40;;;;;;2271807;59;21067;-74
2022/07/13 00:25:31;;;;;;;2.22;1.60;;;22.70;59.30;;;;;;2271823;59;21151;-74
2022/07/13 00:27:59;;;;;;;2.78;1.50;;;22.70;59.30;;;;;;2272104;59;21546;-74
2022/07/13 00:30:26;;;;;;;2.72;1.40;;;22.70;59.30;;;;;;2272572;59;21648;-74
2022/07/13 00:32:54;;;;;;;1.60;1.50;;;22.70;59.40;;;;;;2353292;55;21075;-74
2022/07/13 00:35:21;;;;;;;1.17;1.08;;;22.70;59.30;;;;;;2271726;59;21071;-74
2022/07/13 00:37:48;;;;;;;2.40;1.40;;;22.70;59.30;;;;;;2271654;59;21060;-74
2022/07/13 00:40:16;;;;;;;2.87;1.60;;;22.70;59.30;;;;;;2271693;59;21071;-74
2022/07/13 00:42:43;;;;;;;2.17;1.70;;;22.70;59.30;;;;;;2275838;55;21146;-74
2022/07/13 00:45:11;;;;;;;2.67;1.70;;;22.70;59.40;;;;;;2273063;55;21566;-74
2022/07/13 00:47:39;;;;;;;1.48;1.37;;;22.80;59.40;;;;;;2276573;55;21079;-74
2022/07/13 00:50:08;;;;;;;3.62;1.60;;;22.80;59.30;;;;;;2272031;59;21133;-74
2022/07/13 00:52:36;;;;;;;1.55;1.30;;;22.80;59.00;;;;;;2271891;59;21080;-74
2022/07/13 00:55:06;;;;;;;1.60;1.50;;;22.80;59.20;;;;;;2271861;59;21047;-74
2022/07/13 00:57:35;;;;;;;5.05;1.80;;;22.80;59.30;;;;;;2272345;59;21632;-74
2022/07/13 01:00:08;;;;;;;2.00;1.50;;;22.80;59.40;;;;;;2271405;59;21071;-74
2022/07/13 01:02:37;;;;;;;1.67;1.42;;;22.80;59.50;;;;;;2317370;55;21079;-73
2022/07/13 01:05:06;;;;;;;1.45;1.20;;;22.80;59.40;;;;;;2271830;59;21075;-74
2022/07/13 01:07:34;;;;;;;2.65;1.60;;;22.80;59.50;;;;;;2279153;55;21071;-73
2022/07/13 01:10:05;;;;;;;1.85;1.65;;;22.80;59.40;;;;;;2351005;55;21067;-74
2022/07/13 01:12:33;;;;;;;1.90;1.30;;;22.80;59.50;;;;;;2316737;55;21059;-74
2022/07/13 01:15:01;;;;;;;1.35;1.20;;;22.80;59.60;;;;;;2271955;59;21079;-74
2022/07/13 01:17:30;;;;;;;2.70;1.25;;;22.70;59.70;;;;;;2271743;59;22275;-74
2022/07/13 01:19:57;;;;;;;2.00;1.48;;;22.70;59.70;;;;;;2272130;59;21142;-74
2022/07/13 01:22:29;;;;;;;2.55;1.50;;;22.70;59.60;;;;;;2308743;55;21059;-74
2022/07/13 01:24:57;;;;;;;1.30;1.20;;;22.70;59.50;;;;;;2364387;55;21087;-73
2022/07/13 01:27:25;;;;;;;2.87;1.50;;;22.80;59.60;;;;;;2271851;59;21139;-73
2022/07/13 01:29:53;;;;;;;2.00;1.15;;;22.80;59.60;;;;;;2357081;55;21206;-74
2022/07/13 01:32:20;;;;;;;2.35;1.80;;;22.70;59.60;;;;;;2400117;55;21178;-73
2022/07/13 01:34:47;;;;;;;2.80;1.62;;;22.80;59.60;;;;;;2271557;59;21071;-74
2022/07/13 01:37:15;;;;;;;1.70;1.52;;;22.80;59.60;;;;;;2269327;59;21137;-74
2022/07/13 01:39:42;;;;;;;3.58;2.62;;;22.80;59.60;;;;;;2271653;59;21126;-74
2022/07/13 01:42:10;;;;;;;2.97;1.58;;;22.80;59.60;;;;;;2271151;59;21115;-74
2022/07/13 01:44:37;;;;;;;2.90;1.40;;;22.80;59.60;;;;;;2270867;59;21232;-73
2022/07/13 01:47:08;;;;;;;2.65;1.52;;;22.80;59.70;;;;;;2355691;55;21055;-74
2022/07/13 01:49:36;;;;;;;1.73;1.50;;;22.80;59.70;;;;;;2272147;59;22104;-74
2022/07/13 01:52:03;;;;;;;2.75;1.73;;;22.80;59.70;;;;;;2272269;59;21071;-74
2022/07/13 01:54:31;;;;;;;1.92;1.60;;;22.80;59.60;;;;;;2270660;59;21063;-74
2022/07/13 01:56:58;;;;;;;1.50;1.40;;;22.80;59.60;;;;;;2271761;59;21410;-74
2022/07/13 01:59:25;;;;;;;1.35;1.25;;;22.80;59.60;;;;;;2271610;59;21130;-74
2022/07/13 02:01:54;;;;;;;1.80;1.33;;;22.80;59.60;;;;;;2322872;55;21134;-74
2022/07/13 02:04:21;;;;;;;4.82;2.85;;;22.80;59.60;;;;;;2297851;55;21618;-74
2022/07/13 02:06:50;;;;;;;1.98;1.50;;;22.80;59.70;;;;;;2271237;59;21063;-74
2022/07/13 02:09:17;;;;;;;2.78;1.60;;;22.70;59.80;;;;;;2272441;59;21202;-74
2022/07/13 02:11:45;;;;;;;2.35;1.75;;;22.70;59.80;;;;;;2271891;59;21379;-74
2022/07/13 02:14:12;;;;;;;1.37;1.27;;;22.70;59.80;;;;;;2425810;55;21075;-74
2022/07/13 02:16:40;;;;;;;1.23;1.12;;;22.70;59.90;;;;;;2271344;59;21067;-74
2022/07/13 02:19:07;;;;;;;2.00;1.45;;;22.70;59.90;;;;;;2271980;59;21072;-74
2022/07/13 02:21:34;;;;;;;2.62;1.60;;;22.70;60.10;;;;;;2272467;59;21079;-74
2022/07/13 02:24:02;;;;;;;2.42;1.40;;;22.60;60.20;;;;;;2271561;59;21119;-74
2022/07/13 02:26:29;;;;;;;2.58;1.55;;;22.60;60.10;;;;;;2379317;55;22221;-74
2022/07/13 02:28:56;;;;;;;2.10;1.40;;;22.60;60.00;;;;;;2271740;59;21377;-74
2022/07/13 02:31:24;;;;;;;1.52;1.30;;;22.60;59.90;;;;;;2271857;59;21066;-74
2022/07/13 02:33:51;;;;;;;2.78;1.48;;;22.60;60.00;;;;;;2271821;59;21119;-73
2022/07/13 02:36:18;;;;;;;1.67;1.40;;;22.60;59.90;;;;;;2271770;59;21545;-74
2022/07/13 02:38:46;;;;;;;2.40;1.60;;;22.60;60.00;;;;;;2272192;59;21712;-74
2022/07/13 02:41:13;;;;;;;2.45;1.60;;;22.60;60.00;;;;;;2272497;59;21221;-74
2022/07/13 02:43:40;;;;;;;2.40;1.70;;;22.60;60.00;;;;;;2271786;59;21079;-74
2022/07/13 02:46:08;;;;;;;1.67;1.35;;;22.60;59.90;;;;;;2271228;59;21237;-74
2022/07/13 02:48:35;;;;;;;2.70;1.50;;;22.60;60.00;;;;;;2271535;59;21071;-74
2022/07/13 02:51:02;;;;;;;2.85;1.80;;;22.60;59.90;;;;;;2271769;59;21087;-74
2022/07/13 02:53:30;;;;;;;2.22;1.45;;;22.60;59.90;;;;;;2272038;59;21091;-74
2022/07/13 02:55:58;;;;;;;1.77;1.48;;;22.60;59.90;;;;;;2271942;59;21163;-74
2022/07/13 02:58:25;;;;;;;1.60;1.40;;;22.60;60.00;;;;;;2272481;59;21118;-74
2022/07/13 03:00:53;;;;;;;2.30;1.58;;;22.60;60.00;;;;;;2271824;59;21067;-74
2022/07/13 03:03:20;;;;;;;1.98;1.58;;;22.60;60.00;;;;;;2272177;59;21067;-73
2022/07/13 03:05:48;;;;;;;1.95;1.50;;;22.60;59.90;;;;;;2271209;59;21206;-74
2022/07/13 03:08:15;;;;;;;1.55;1.40;;;22.60;59.90;;;;;;2272582;59;21158;-74
2022/07/13 03:10:43;;;;;;;1.95;1.50;;;22.60;60.00;;;;;;2271413;59;21130;-74
2022/07/13 03:13:10;;;;;;;1.87;1.52;;;22.60;59.80;;;;;;2285372;55;21090;-74
2022/07/13 03:15:37;;;;;;;3.58;1.55;;;22.60;60.30;;;;;;2271884;59;21082;-74
2022/07/13 03:18:04;;;;;;;2.08;1.58;;;22.60;59.60;;;;;;2272473;59;21134;-74
2022/07/13 03:20:32;;;;;;;3.37;1.77;;;22.60;59.80;;;;;;2272281;59;21179;-74
2022/07/13 03:22:59;;;;;;;3.12;1.58;;;22.60;59.70;;;;;;2277105;55;21757;-74
2022/07/13 03:25:28;;;;;;;1.92;1.70;;;22.60;59.80;;;;;;2271179;59;21582;-74
2022/07/13 03:27:55;;;;;;;2.87;1.40;;;22.60;59.70;;;;;;2278395;55;21245;-74
2022/07/13 03:30:22;;;;;;;2.17;1.83;;;22.50;59.70;;;;;;2290119;55;21143;-74
2022/07/13 03:32:50;;;;;;;2.35;1.70;;;22.50;59.70;;;;;;2271900;59;21125;-74
2022/07/13 03:35:17;;;;;;;3.05;1.30;;;22.50;59.80;;;;;;2271993;59;21091;-73
2022/07/13 03:37:44;;;;;;;3.62;1.58;;;22.50;59.90;;;;;;2272132;59;21111;-74
2022/07/13 03:40:14;;;;;;;2.37;1.60;;;22.50;59.80;;;;;;2272213;57;21059;-74
2022/07/13 03:42:41;;;;;;;2.00;1.80;;;22.50;59.90;;;;;;2272334;59;21501;-74
2022/07/13 03:45:10;;;;;;;2.50;1.50;;;22.50;59.90;;;;;;2272165;59;21055;-74
2022/07/13 03:47:37;;;;;;;2.10;1.45;;;22.50;59.90;;;;;;2272111;59;21241;-74
2022/07/13 03:50:06;;;;;;;2.65;1.50;;;22.50;60.00;;;;;;2272663;59;21215;-74
2022/07/13 03:52:33;;;;;;;3.97;1.60;;;22.50;60.20;;;;;;2272591;59;21059;-74
2022/07/13 03:55:01;;;;;;;3.03;2.05;;;22.50;60.40;;;;;;2272089;59;21167;-73
2022/07/13 03:57:28;;;;;;;2.25;1.60;;;22.50;60.50;;;;;;2271815;59;21083;-74
2022/07/13 03:59:55;;;;;;;4.05;1.65;;;22.50;60.20;;;;;;2272423;59;21071;-74
2022/07/13 04:02:23;;;;;;;2.58;1.58;;;22.50;60.40;;;;;;2373321;55;21170;-74
2022/07/13 04:04:50;;;;;;;3.37;1.77;;;22.50;60.40;;;;;;2271831;59;21039;-74
2022/07/13 04:07:17;;;;;;;4.03;1.90;;;22.50;60.40;;;;;;2303694;55;21546;-74
2022/07/13 04:09:45;;;;;;;1.80;1.50;;;22.50;60.30;;;;;;2272342;59;21067;-74
2022/07/13 04:12:12;;;;;;;2.72;2.08;;;22.50;60.20;;;;;;2272412;59;21127;-74
2022/07/13 04:14:39;;;;;;;2.70;1.50;;;22.50;60.20;;;;;;2282647;55;21142;-73
2022/07/13 04:17:07;;;;;;;3.47;1.90;;;22.50;60.40;;;;;;2271968;59;21081;-74
2022/07/13 04:19:34;;;;;;;2.10;1.50;;;22.50;60.30;;;;;;2375355;55;21079;-73
2022/07/13 04:22:01;;;;;;;1.90;1.67;;;22.60;60.10;;;;;;2272185;59;21060;-73
2022/07/13 04:24:28;;;;;;;2.55;1.73;;;22.60;60.00;;;;;;2272220;59;21079;-74
2022/07/13 04:26:56;;;;;;;4.37;1.73;;;22.60;60.00;;;;;;2271538;59;21138;-73
2022/07/13 04:29:23;;;;;;;3.08;1.80;;;22.60;60.10;;;;;;2315471;55;21074;-73
2022/07/13 04:31:51;;;;;;;4.70;1.75;;;22.60;60.10;;;;;;2272517;59;21134;-74
2022/07/13 04:34:18;;;;;;;2.97;1.85;;;22.60;60.10;;;;;;2271946;59;21119;-74
2022/07/13 04:36:46;;;;;;;2.28;1.85;;;22.60;60.00;;;;;;2427410;55;21027;-76
2022/07/13 04:39:14;;;;;;;7.65;1.80;;;22.70;60.10;;;;;;2291511;58;21055;-77
2022/07/13 04:41:41;;;;;;;1.87;1.60;;;22.70;60.00;;;;;;2292295;58;21137;-76
2022/07/13 04:44:09;;;;;;;2.00;1.80;;;22.70;59.90;;;;;;2291074;58;21066;-76
2022/07/13 04:46:36;;;;;;;2.72;1.55;;;22.70;59.80;;;;;;2291276;58;21118;-76
2022/07/13 04:49:04;;;;;;;3.33;1.60;;;22.70;59.90;;;;;;2290392;58;21133;-77
2022/07/13 04:51:31;;;;;;;2.67;1.85;;;22.80;60.00;;;;;;2291777;58;21065;-76
2022/07/13 04:53:58;;;;;;;2.10;1.67;;;22.80;59.70;;;;;;2291924;58;21095;-76
2022/07/13 04:56:25;;;;;;;2.53;1.55;;;22.80;59.70;;;;;;2292051;58;21138;-76
2022/07/13 04:58:53;;;;;;;1.67;1.58;;;22.80;59.50;;;;;;2291074;58;21062;-77
2022/07/13 05:01:20;;;;;;;4.05;1.73;;;22.90;59.70;;;;;;2291556;58;21059;-76
2022/07/13 05:03:48;;;;;;;1.95;1.62;;;22.90;59.50;;;;;;2292117;58;21034;-77
2022/07/13 05:06:15;;;;;;;2.28;1.70;;;22.90;59.40;;;;;;2291056;58;21126;-76
2022/07/13 05:08:43;;;;;;;2.95;1.60;;;22.90;59.50;;;;;;2292530;58;21130;-77
2022/07/13 05:11:10;;;;;;;2.12;1.77;;;23.00;59.40;;;;;;2291682;58;21118;-76
2022/07/13 05:13:38;;;;;;;2.40;1.83;;;22.90;59.20;;;;;;2526969;55;21110;-77
2022/07/13 05:16:06;;;;;;;3.60;1.58;;;23.00;59.40;;;;;;2290223;58;21636;-77
2022/07/13 05:18:34;;;;;;;2.87;1.73;;;23.00;59.30;;;;;;2290508;58;21593;-77
2022/07/13 05:21:01;;;;;;;3.10;1.67;;;23.00;59.20;;;;;;2290299;58;21034;-77
2022/07/13 05:23:29;;;;;;;2.03;1.40;;;23.00;59.20;;;;;;2291237;58;21095;-77
2022/07/13 05:25:56;;;;;;;1.87;1.67;;;23.00;59.10;;;;;;2291363;58;21058;-77
2022/07/13 05:28:26;;;;;;;1.98;1.70;;;23.00;59.40;;;;;;2292108;58;21066;-77
2022/07/13 05:30:53;;;;;;;2.10;1.80;;;23.00;59.20;;;;;;2291146;58;21045;-77
2022/07/13 05:33:20;;;;;;;2.17;1.60;;;23.10;59.30;;;;;;2291926;58;21058;-77
2022/07/13 05:35:48;;;;;;;3.58;1.83;;;23.10;59.30;;;;;;2289887;58;21043;-77
2022/07/13 05:38:15;;;;;;;1.62;1.50;;;23.10;58.90;;;;;;2291401;58;21134;-77
2022/07/13 05:40:43;;;;;;;1.80;1.70;;;23.10;59.00;;;;;;2292740;58;21054;-76
2022/07/13 05:43:10;;;;;;;2.00;1.77;;;23.10;59.20;;;;;;2291561;58;21142;-76
2022/07/13 05:45:38;;;;;;;1.92;1.60;;;23.20;59.10;;;;;;2291789;58;21062;-77
2022/07/13 05:48:06;;;;;;;4.05;1.90;;;23.20;59.00;;;;;;2291334;58;22190;-77
2022/07/13 05:50:33;;;;;;;2.67;1.55;;;23.20;58.70;;;;;;2291413;58;21380;-77
2022/07/13 05:53:00;;;;;;;2.08;1.70;;;23.30;58.50;;;;;;2290640;58;21050;-77
2022/07/13 05:55:28;;;;;;;2.70;1.62;;;23.30;58.60;;;;;;2290538;58;21536;-77
2022/07/13 05:57:55;;;;;;;2.17;1.75;;;23.30;58.70;;;;;;2291965;58;21038;-76
2022/07/13 06:00:22;;;;;;;2.53;1.85;;;23.30;58.80;;;;;;2291492;58;21552;-76
2022/07/13 06:02:57;;;;;;;2.25;1.42;;;23.30;58.60;;;;;;2526675;55;21098;-77
2022/07/13 06:06:31;;;;;;;2.50;1.80;;;23.30;58.70;;;;;;2290004;58;21147;-77
2022/07/13 06:08:58;;;;;;;1.58;1.48;;;23.30;58.60;;;;;;2291153;58;21059;-77
2022/07/13 06:11:26;;;;;;;6.15;1.90;;;23.40;58.80;;;;;;2291046;58;21078;-77
2022/07/13 06:13:53;;;;;;;2.37;1.90;;;23.40;59.00;;;;;;2289639;58;21129;-76
2022/07/13 06:16:20;;;;;;;3.37;1.75;;;23.40;59.10;;;;;;2523093;55;21138;-76
2022/07/13 06:18:48;;;;;;;3.03;1.70;;;23.40;59.10;;;;;;2289495;58;21062;-77
2022/07/13 06:21:15;;;;;;;2.67;1.58;;;23.50;59.00;;;;;;2289693;58;21109;-77
2022/07/13 06:23:43;;;;;;;1.83;1.73;;;23.50;59.10;;;;;;2288894;58;21130;-77
2022/07/13 06:26:11;;;;;;;2.83;1.90;;;23.50;59.10;;;;;;2288221;58;22174;-77
2022/07/13 06:28:38;;;;;;;3.72;1.98;;;23.60;59.00;;;;;;2290610;58;21054;-77
2022/07/13 06:31:05;;;;;;;1.90;1.50;;;23.60;59.40;;;;;;2291702;58;21058;-77
2022/07/13 06:33:33;;;;;;;1.98;1.58;;;23.70;59.00;;;;;;2291610;58;21042;-77
2022/07/13 06:36:00;;;;;;;2.30;1.70;;;23.70;59.20;;;;;;2290890;58;21173;-77
2022/07/13 06:38:28;;;;;;;4.37;1.98;;;23.70;59.00;;;;;;2291976;58;21617;-77
2022/07/13 06:40:55;;;;;;;2.53;1.90;;;23.80;59.00;;;;;;2291758;58;21090;-77
2022/07/13 06:43:23;;;;;;;3.17;1.80;;;23.80;59.10;;;;;;2292032;58;21071;-77
2022/07/13 06:45:50;;;;;;;2.50;2.10;;;23.90;59.00;;;;;;2291688;58;21055;-77
2022/07/13 06:48:18;;;;;;;2.15;1.80;;;24.00;58.70;;;;;;2292000;58;21082;-77
2022/07/13 06:50:45;;;;;;;3.15;2.17;;;24.00;58.40;;;;;;2291969;58;21556;-77
2022/07/13 06:53:13;;;;;;;3.62;1.80;;;24.10;58.50;;;;;;2290536;58;21062;-77
2022/07/13 06:55:40;;;;;;;2.78;2.00;;;24.20;58.60;;;;;;2290298;58;21141;-77
2022/07/13 06:58:08;;;;;;;3.00;1.70;;;24.20;59.20;;;;;;2526774;55;21138;-77
2022/07/13 07:00:35;;;;;;;4.28;2.08;;;24.30;58.60;;;;;;2292017;58;21078;-76
2022/07/13 07:03:03;;;;;;;2.17;1.90;;;24.40;58.70;;;;;;2292107;58;21070;-77
2022/07/13 07:08:07;;;;;;;3.12;1.98;;;24.50;58.00;;;;;;2354791;57;22651;-77
2022/07/13 07:10:34;;;;;;;1.90;1.67;;;24.50;58.20;;;;;;2361010;56;21541;-77
2022/07/13 07:13:02;;;;;;;2.83;2.00;;;24.60;58.20;;;;;;2374702;56;21055;-77
2022/07/13 07:15:29;;;;;;;8.32;2.35;;;24.70;58.00;;;;;;2372138;56;21109;-76
2022/07/13 07:17:56;;;;;;;4.62;2.22;;;24.80;57.60;;;;;;2372647;56;21301;-77
2022/07/13 07:20:24;;;;;;;4.82;2.12;;;24.80;57.20;;;;;;2626659;52;21031;-77
2022/07/13 07:22:51;;;;;;;6.97;2.30;;;24.80;56.80;;;;;;2372879;56;21169;-77
2022/07/13 07:25:19;;;;;;;3.05;2.30;;;24.90;57.10;;;;;;2372567;56;21043;-77
2022/07/13 07:27:47;;;;;;;3.97;2.70;;;24.90;56.70;;;;;;2373620;56;21070;-77
2022/07/13 07:30:15;;;;;;;4.62;2.33;;;24.90;56.50;;;;;;2372979;56;21120;-77
2022/07/13 07:32:42;;;;;;;7.15;2.30;;;24.90;56.50;;;;;;2625302;52;21047;-77
2022/07/13 07:35:10;;;;;;;4.03;2.45;;;24.90;56.30;;;;;;2373572;56;21035;-77
2022/07/13 07:37:39;;;;;;;5.55;2.70;;;24.90;56.60;;;;;;2372954;56;21031;-77
2022/07/13 07:40:08;;;;;;;6.40;2.70;;;25.00;56.90;;;;;;2373608;56;21126;-77
2022/07/13 07:42:36;;;;;;;4.95;2.35;;;25.00;56.10;;;;;;2371648;56;21058;-77
2022/07/13 07:45:04;;;;;;;3.70;2.28;;;25.00;55.90;;;;;;2373600;56;21035;-76
2022/07/13 07:47:32;;;;;;;3.22;2.50;;;25.00;55.80;;;;;;2372774;56;21047;-77
2022/07/13 07:49:59;;;;;;;3.28;2.35;;;25.10;56.00;;;;;;2373293;56;21058;-77
2022/07/13 07:52:27;;;;;;;4.22;2.60;;;25.10;56.10;;;;;;2373297;56;21085;-77
2022/07/13 07:54:54;;;;;;;4.82;2.53;;;25.10;56.00;;;;;;2373708;56;21106;-78
2022/07/13 07:57:21;;;;;;;3.62;2.72;;;25.10;56.30;;;;;;2373562;56;21127;-77
2022/07/13 07:59:48;;;;;;;6.85;2.67;;;25.10;55.00;;;;;;2373650;56;21058;-76
2022/07/13 08:02:16;;;;;;;5.30;2.50;;;25.10;54.90;;;;;;2333550;56;21063;-77
2022/07/13 08:04:44;;;;;;;5.72;2.60;;;25.20;54.90;;;;;;2627355;52;21019;-77
2022/07/13 08:07:12;;;;;;;6.28;2.47;;;25.20;54.50;;;;;;2372485;56;21143;-77
2022/07/13 08:12:15;;;;;;;2.42;2.10;;;25.20;54.60;;;;;;2352707;57;22090;-77
2022/07/13 08:14:43;;;;;;;4.18;2.75;;;25.30;54.60;;;;;;2583938;53;21065;-78
2022/07/13 08:17:10;;;;;;;6.05;2.20;;;25.30;54.10;;;;;;2345986;57;21120;-77
2022/07/13 08:19:37;;;;;;;4.05;2.45;;;25.30;54.30;;;;;;2346393;56;21050;-77
2022/07/13 08:22:05;;;;;;;7.12;2.60;;;25.30;54.10;;;;;;2373138;56;21051;-78
2022/07/13 08:24:32;;;;;;;7.15;2.35;;;25.40;54.10;;;;;;2373949;56;21094;-77
2022/07/13 08:27:01;;;;;;;2.53;2.17;;;25.40;54.00;;;;;;2373332;56;21062;-78
2022/07/13 08:29:28;;;;;;;4.37;2.35;;;25.40;53.90;;;;;;2372823;56;21042;-76
2022/07/13 08:31:56;;;;;;;3.28;2.37;;;25.40;53.80;;;;;;2627332;52;21094;-79
2022/07/13 08:39:54;;;;;;;3.60;2.92;;;25.40;53.80;;;;;;2373025;56;21145;-76
2022/07/13 08:42:21;;;;;;;3.95;2.60;;;25.50;53.90;;;;;;2372454;56;21601;-76
2022/07/13 08:44:49;;;;;;;3.80;2.87;;;25.50;54.10;;;;;;2373634;56;21126;-76
2022/07/13 08:47:17;;;;;;;3.45;2.60;;;25.50;54.80;;;;;;2372632;56;21063;-77
2022/07/13 08:49:45;;;;;;;6.80;2.60;;;25.50;54.30;;;;;;2628267;52;21107;-77
2022/07/13 08:52:13;;;;;;;3.55;2.40;;;25.60;54.60;;;;;;2373921;56;21134;-77
2022/07/13 08:54:40;;;;;;;3.22;2.37;;;25.70;54.70;;;;;;2374230;56;21110;-77
2022/07/13 08:57:08;;;;;;;4.07;2.53;;;25.70;54.60;;;;;;2373291;56;21087;-77
2022/07/13 08:59:35;;;;;;;2.95;2.33;;;25.70;54.20;;;;;;2373696;56;21137;-78
2022/07/13 09:02:02;;;;;;;4.07;2.22;;;25.80;54.20;;;;;;2374072;56;21035;-77
2022/07/13 09:04:31;;;;;;;4.20;2.33;;;25.80;54.10;;;;;;2373331;56;22638;-76
2022/07/13 09:06:58;;;;;;;3.10;2.40;;;25.80;53.90;;;;;;2371290;56;21135;-77
2022/07/13 09:09:28;;;;;;;4.45;2.50;;;25.90;53.80;;;;;;2372935;56;21118;-77
2022/07/13 09:12:16;;;;;;;4.15;2.60;;;26.00;54.20;;;;;;2374037;56;21109;-76
2022/07/13 09:14:49;;;;;;;3.30;2.35;;;26.00;54.10;;;;;;2374548;56;21027;-76
2022/07/13 09:20:23;;;;;;;4.82;2.55;;;26.10;53.90;;;;;;2316734;57;22175;-76
2022/07/13 09:22:52;;;;;;;4.62;3.67;;;26.20;53.90;;;;;;2320188;58;21111;-76
2022/07/13 09:25:32;;;;;;;3.65;2.72;;;26.20;52.90;;;;;;2319598;58;21072;-76
2022/07/13 09:28:03;;;;;;;4.85;3.17;;;26.30;53.30;;;;;;2320577;58;21071;-76
2022/07/13 09:30:31;;;;;;;5.07;2.90;;;26.20;53.00;;;;;;2320148;58;21804;-76
2022/07/13 09:33:00;;;;;;;7.25;3.30;;;26.30;53.30;;;;;;2319945;58;21618;-76
2022/07/13 09:35:45;;;;;;;3.90;2.95;;;26.20;53.00;;;;;;2318264;58;21123;-76
2022/07/13 09:38:28;;;;;;;5.05;3.00;;;26.30;53.00;;;;;;2320249;58;21059;-76
2022/07/13 09:40:56;;;;;;;4.93;3.47;;;26.30;53.60;;;;;;2320096;58;21124;-76
2022/07/13 09:46:14;;;;;;;5.75;3.10;;;26.30;52.80;;;;;;2273201;58;21075;-76
2022/07/13 09:48:50;;;;;;;5.37;2.90;;;26.30;53.40;;;;;;2317378;58;21122;-76
2022/07/13 09:51:27;;;;;;;4.70;3.20;;;26.30;53.40;;;;;;2317457;58;21082;-76
2022/07/13 09:53:56;;;;;;;4.62;3.05;;;26.40;52.90;;;;;;2315962;58;21052;-77
2022/07/13 09:56:26;;;;;;;6.15;2.85;;;26.40;52.30;;;;;;2318238;57;21044;-77
2022/07/13 09:58:55;;;;;;;4.28;3.30;;;26.40;52.40;;;;;;2319636;58;21040;-77
2022/07/13 10:01:23;;;;;;;5.47;3.22;;;26.50;52.20;;;;;;2318821;58;21151;-77
2022/07/13 10:03:52;;;;;;;3.50;2.80;;;26.50;51.90;;;;;;2317469;58;21052;-77
2022/07/13 10:06:20;;;;;;;4.62;2.47;;;26.60;52.40;;;;;;2318369;58;21072;-76
2022/07/13 10:08:48;;;;;;;3.75;3.42;;;26.70;51.40;;;;;;2318102;58;21102;-77
2022/07/13 10:11:16;;;;;;;4.37;2.50;;;26.70;50.80;;;;;;2317677;58;21158;-77
2022/07/13 10:13:44;;;;;;;3.83;2.67;;;26.70;50.80;;;;;;2318158;58;21090;-77
2022/07/13 10:16:11;;;;;;;4.37;2.42;;;26.80;50.60;;;;;;2316370;58;21131;-76
2022/07/13 10:18:41;;;;;;;6.05;3.33;;;26.80;50.40;;;;;;2316536;58;21151;-77
2022/07/13 10:21:15;;;;;;;3.90;2.90;;;26.80;49.70;;;;;;2317787;58;21143;-76
2022/07/13 10:23:43;;;;;;;4.37;2.97;;;26.80;49.60;;;;;;2316675;58;21444;-77
2022/07/13 10:32:08;;;;;;;3.25;2.47;;;27.00;49.40;;;;;;2411374;52;21845;-76
2022/07/13 10:38:14;;;;;;;4.18;3.15;;;27.10;49.50;;;;;;2368141;53;68012;-80
2022/07/13 10:40:42;;;;;;;5.72;2.80;;;27.10;49.50;;;;;;2361041;53;21486;-84
2022/07/13 10:43:18;;;;;;;4.10;3.33;;;27.00;49.80;;;;;;2361067;53;21073;-84
2022/07/13 10:45:48;;;;;;;10.50;3.47;;;27.00;50.00;;;;;;2353419;54;21057;-84
2022/07/13 10:48:42;;;;;;;4.60;3.30;;;27.00;49.60;;;;;;2356298;53;21233;-83
2022/07/13 10:51:21;;;;;;;5.60;3.20;;;27.00;50.10;;;;;;2329530;55;21111;-83
2022/07/13 10:54:06;;;;;;;5.60;3.15;;;27.00;50.30;;;;;;2332497;53;21055;-85
2022/07/13 10:56:33;;;;;;;4.40;3.00;;;27.00;50.70;;;;;;2329367;53;21584;-84
2022/07/13 10:59:02;;;;;;;5.18;2.97;;;27.10;50.70;;;;;;2337208;53;21099;-84
2022/07/13 11:01:41;;;;;;;4.00;3.58;;;27.10;50.90;;;;;;2336950;53;21135;-84
2022/07/13 11:04:11;;;;;;;4.40;3.15;;;27.10;50.70;;;;;;2329908;56;21068;-84
2022/07/13 11:06:39;;;;;;;5.85;3.62;;;27.20;50.90;;;;;;2331939;53;21091;-83
2022/07/13 11:09:12;;;;;;;4.95;2.97;;;27.20;51.00;;;;;;2329084;57;21617;-83
2022/07/13 11:11:50;;;;;;;5.35;3.47;;;27.30;51.40;;;;;;2331148;53;21084;-83
2022/07/13 11:14:49;;;;;;;5.95;3.10;;;27.40;51.80;;;;;;2333238;53;21107;-83
2022/07/13 11:17:19;;;;;;;5.28;3.08;;;27.50;51.40;;;;;;2351715;53;21135;-82
2022/07/13 11:19:58;;;;;;;3.80;2.90;;;27.60;51.00;;;;;;2329885;54;21103;-83
2022/07/13 11:25:13;;;;;;;5.20;3.05;;;27.80;51.20;;;;;;2330460;53;22139;-83
2022/07/13 11:27:49;;;;;;;4.18;3.30;;;27.90;51.20;;;;;;2343196;53;21163;-84
2022/07/13 11:30:27;;;;;;;5.25;2.95;;;28.20;50.80;;;;;;2335187;53;21048;-83
2022/07/13 11:32:55;;;;;;;5.50;3.10;;;28.30;50.50;;;;;;2331192;53;21115;-83
2022/07/13 11:35:23;;;;;;;5.60;3.03;;;28.50;50.00;;;;;;2331476;53;21887;-84
2022/07/13 11:37:51;;;;;;;5.95;3.55;;;28.60;49.30;;;;;;2334082;53;21091;-85
2022/07/13 11:40:30;;;;;;;3.97;2.62;;;28.70;49.20;;;;;;2340899;53;21742;-83
2022/07/13 11:43:00;;;;;;;6.80;3.05;;;29.00;49.20;;;;;;2332046;53;21158;-85
2022/07/13 11:45:30;;;;;;;3.20;2.70;;;29.10;48.90;;;;;;2331243;53;21064;-85
2022/07/13 11:50:43;;;;;;;4.05;3.15;;;29.20;48.60;;;;;;2420975;53;22362;-74
2022/07/13 11:53:24;;;;;;;5.68;2.97;;;29.40;47.80;;;;;;2344995;55;21105;-73
2022/07/13 11:55:52;;;;;;;5.07;2.65;;;29.30;47.40;;;;;;2343117;57;21061;-74
2022/07/13 11:58:28;;;;;;;7.60;2.90;;;29.30;47.10;;;;;;2344552;57;21058;-75
2022/07/13 12:00:56;;;;;;;4.37;3.30;;;29.40;47.70;;;;;;2342986;57;21062;-73
2022/07/13 12:03:34;;;;;;;4.30;3.22;;;29.40;46.60;;;;;;2343459;57;21049;-74
2022/07/13 12:06:05;;;;;;;5.10;2.72;;;29.50;46.50;;;;;;2342809;57;21041;-74
2022/07/13 12:08:34;;;;;;;5.47;2.75;;;29.60;46.70;;;;;;2344022;57;21117;-73
2022/07/13 12:11:03;;;;;;;4.45;3.05;;;29.70;46.60;;;;;;2343124;55;21181;-73
2022/07/13 12:13:33;;;;;;;4.03;2.40;;;29.70;46.20;;;;;;2344426;57;21046;-74
2022/07/13 12:16:01;;;;;;;5.15;3.05;;;29.80;46.10;;;;;;2343158;57;21534;-73
2022/07/13 12:18:29;;;;;;;3.15;2.85;;;29.90;45.80;;;;;;2344630;57;21057;-74
2022/07/13 12:20:57;;;;;;;3.55;2.67;;;29.90;46.30;;;;;;2342657;57;21057;-74
2022/07/13 12:23:27;;;;;;;4.30;2.55;;;30.00;46.50;;;;;;2390112;53;21125;-73
2022/07/13 12:28:50;;;;;;;4.07;2.75;;;30.00;45.00;;;;;;2332411;57;28372;-74
2022/07/13 12:31:20;;;;;;;3.53;2.60;;;30.10;45.20;;;;;;2365967;56;21145;-73
2022/07/13 12:33:50;;;;;;;4.43;2.80;;;30.10;44.80;;;;;;2435393;52;21118;-73
2022/07/13 12:36:20;;;;;;;3.20;2.55;;;30.10;42.80;;;;;;2371897;56;21054;-74
2022/07/13 12:38:58;;;;;;;3.65;2.75;;;30.00;42.70;;;;;;2373084;56;21047;-73
2022/07/13 12:41:32;;;;;;;4.10;3.55;;;30.00;43.80;;;;;;2369796;56;21060;-75
2022/07/13 12:44:02;;;;;;;4.40;3.10;;;29.90;43.30;;;;;;2372290;56;21161;-74
2022/07/13 12:46:46;;;;;;;3.25;2.60;;;29.80;42.20;;;;;;2372401;56;21067;-75
2022/07/13 12:49:14;;;;;;;5.05;3.08;;;29.80;42.60;;;;;;2374407;56;21019;-76
2022/07/13 12:51:46;;;;;;;2.72;2.50;;;29.80;42.20;;;;;;2373099;56;21055;-75
2022/07/13 12:54:14;;;;;;;4.25;2.40;;;29.80;42.20;;;;;;2374210;56;21043;-75
2022/07/13 12:56:50;;;;;;;4.57;2.60;;;29.80;42.30;;;;;;2372224;56;21042;-74
2022/07/13 12:59:20;;;;;;;4.18;1.98;;;29.90;41.60;;;;;;2373133;56;21019;-75
2022/07/13 13:01:48;;;;;;;3.60;2.05;;;29.90;39.50;;;;;;2373468;56;21067;-75
2022/07/13 13:04:17;;;;;;;4.72;1.95;;;29.90;38.90;;;;;;2403207;52;21047;-74
2022/07/13 13:06:46;;;;;;;2.00;1.70;;;30.00;38.30;;;;;;2372766;56;21075;-75
2022/07/13 13:09:15;;;;;;;2.78;2.10;;;30.00;38.30;;;;;;2373438;56;21063;-75
2022/07/13 13:11:44;;;;;;;4.50;2.00;;;30.10;39.10;;;;;;2387054;52;21570;-75
2022/07/13 13:14:12;;;;;;;2.50;1.90;;;30.10;39.40;;;;;;2371968;56;21099;-75
2022/07/13 13:16:41;;;;;;;6.18;1.90;;;30.20;39.00;;;;;;2372907;56;21130;-75
2022/07/13 13:19:09;;;;;;;3.20;2.10;;;30.10;38.10;;;;;;2373905;56;21054;-75
2022/07/13 13:21:37;;;;;;;6.28;2.25;;;30.10;38.80;;;;;;2374144;52;21102;-74
2022/07/13 13:24:06;;;;;;;3.72;1.87;;;30.10;39.00;;;;;;2373831;56;21087;-75
2022/07/13 13:26:35;;;;;;;2.28;2.08;;;30.00;38.90;;;;;;2390113;52;21153;-75
2022/07/13 13:31:48;;;;;;;3.35;2.78;;;30.10;40.00;;;;;;2373529;52;21091;-75
2022/07/13 13:34:16;;;;;;;2.80;2.40;;;30.00;40.20;;;;;;2373639;56;21063;-75